sensor_id;sensor_type;location;lat;lon;timestamp;temperature;humidity
19567;DHT22;9930;49.240;8.548;2023-04-03T00:00:57;8.30;66.70
19567;DHT22;9930;49.240;8.548;2023-04-03T00:03:25;8.20;66.70
19567;DHT22;9930;49.240;8.548;2023-04-03T00:05:51;8.20;66.80
19567;DHT22;9930;49.240;8.548;2023-04-03T00:08:17;8.10;66.80
19567;DHT22;9930;49.240;8.548;2023-04-03T00:10:47;8.10;66.80
19567;DHT22;9930;49.240;8.548;2023-04-03T00:13:14;8.00;66.80
19567;DHT22;9930;49.240;8.548;2023-04-03T00:15:42;8.00;66.90
19567;DHT22;9930;49.240;8.548;2023-04-03T00:18:10;7.90;66.80
19567;DHT22;9930;49.240;8.548;2023-04-03T00:20:39;7.90;66.90
19567;DHT22;9930;49.240;8.548;2023-04-03T00:23:05;7.80;67.00
19567;DHT22;9930;49.240;8.548;2023-04-03T00:25:31;7.80;66.90
19567;DHT22;9930;49.240;8.548;2023-04-03T00:27:58;7.70;66.80
19567;DHT22;9930;49.240;8.548;2023-04-03T00:30:23;7.70;67.00
19567;DHT22;9930;49.240;8.548;2023-04-03T00:32:54;7.70;67.10
19567;DHT22;9930;49.240;8.548;2023-04-03T00:35:21;7.60;67.20
19567;DHT22;9930;49.240;8.548;2023-04-03T00:37:50;7.60;67.20
19567;DHT22;9930;49.240;8.548;2023-04-03T00:40:19;7.60;67.30
19567;DHT22;9930;49.240;8.548;2023-04-03T00:42:48;7.50;67.30
19567;DHT22;9930;49.240;8.548;2023-04-03T00:45:45;7.50;67.20
19567;DHT22;9930;49.240;8.548;2023-04-03T00:48:29;7.50;67.20
19567;DHT22;9930;49.240;8.548;2023-04-03T00:51:03;7.40;67.20
19567;DHT22;9930;49.240;8.548;2023-04-03T00:53:35;7.40;67.20
19567;DHT22;9930;49.240;8.548;2023-04-03T00:56:08;7.40;67.40
19567;DHT22;9930;49.240;8.548;2023-04-03T00:58:41;7.40;67.40
19567;DHT22;9930;49.240;8.548;2023-04-03T01:01:16;7.40;67.40
19567;DHT22;9930;49.240;8.548;2023-04-03T01:03:48;7.30;67.20
19567;DHT22;9930;49.240;8.548;2023-04-03T01:06:16;7.30;67.30
19567;DHT22;9930;49.240;8.548;2023-04-03T01:08:45;7.30;67.40
19567;DHT22;9930;49.240;8.548;2023-04-03T01:11:13;7.30;67.40
19567;DHT22;9930;49.240;8.548;2023-04-03T01:13:39;7.30;67.40
19567;DHT22;9930;49.240;8.548;2023-04-03T01:16:07;7.30;67.40
19567;DHT22;9930;49.240;8.548;2023-04-03T01:18:38;7.20;67.40
19567;DHT22;9930;49.240;8.548;2023-04-03T01:26:39;7.20;67.50
19567;DHT22;9930;49.240;8.548;2023-04-03T01:29:06;7.20;67.50
19567;DHT22;9930;49.240;8.548;2023-04-03T01:31:48;7.20;68.20
19567;DHT22;9930;49.240;8.548;2023-04-03T01:34:16;7.10;67.30
19567;DHT22;9930;49.240;8.548;2023-04-03T01:36:44;7.10;67.40
19567;DHT22;9930;49.240;8.548;2023-04-03T01:39:10;7.10;67.40
19567;DHT22;9930;49.240;8.548;2023-04-03T01:41:38;7.10;67.40
19567;DHT22;9930;49.240;8.548;2023-04-03T01:44:05;7.10;67.40
19567;DHT22;9930;49.240;8.548;2023-04-03T01:46:34;7.10;67.50
19567;DHT22;9930;49.240;8.548;2023-04-03T01:49:08;7.00;67.40
19567;DHT22;9930;49.240;8.548;2023-04-03T01:51:34;7.10;67.50
19567;DHT22;9930;49.240;8.548;2023-04-03T01:54:03;7.00;67.40
19567;DHT22;9930;49.240;8.548;2023-04-03T01:56:29;7.00;67.50
19567;DHT22;9930;49.240;8.548;2023-04-03T01:58:57;7.00;67.50
19567;DHT22;9930;49.240;8.548;2023-04-03T02:01:23;7.00;67.60
19567;DHT22;9930;49.240;8.548;2023-04-03T02:03:51;7.00;67.50
19567;DHT22;9930;49.240;8.548;2023-04-03T02:06:17;7.00;67.60
19567;DHT22;9930;49.240;8.548;2023-04-03T02:08:43;7.00;67.50
19567;DHT22;9930;49.240;8.548;2023-04-03T02:11:09;7.00;67.60
19567;DHT22;9930;49.240;8.548;2023-04-03T02:13:36;7.10;67.70
19567;DHT22;9930;49.240;8.548;2023-04-03T02:16:09;7.00;67.80
19567;DHT22;9930;49.240;8.548;2023-04-03T02:18:37;7.10;67.80
19567;DHT22;9930;49.240;8.548;2023-04-03T02:21:06;7.10;67.70
19567;DHT22;9930;49.240;8.548;2023-04-03T02:23:33;7.10;67.70
19567;DHT22;9930;49.240;8.548;2023-04-03T02:26:11;7.10;67.70
19567;DHT22;9930;49.240;8.548;2023-04-03T02:28:41;7.10;67.70
19567;DHT22;9930;49.240;8.548;2023-04-03T02:31:10;7.10;67.70
19567;DHT22;9930;49.240;8.548;2023-04-03T02:33:36;7.10;67.60
19567;DHT22;9930;49.240;8.548;2023-04-03T02:36:06;7.10;67.60
19567;DHT22;9930;49.240;8.548;2023-04-03T02:38:36;7.10;67.50
19567;DHT22;9930;49.240;8.548;2023-04-03T02:41:06;7.10;67.60
19567;DHT22;9930;49.240;8.548;2023-04-03T02:43:36;7.10;67.50
19567;DHT22;9930;49.240;8.548;2023-04-03T02:46:03;7.10;67.60
19567;DHT22;9930;49.240;8.548;2023-04-03T02:48:33;7.20;67.50
19567;DHT22;9930;49.240;8.548;2023-04-03T02:50:59;7.10;67.40
19567;DHT22;9930;49.240;8.548;2023-04-03T02:53:27;7.10;67.50
19567;DHT22;9930;49.240;8.548;2023-04-03T02:55:53;7.10;67.50
19567;DHT22;9930;49.240;8.548;2023-04-03T02:58:21;7.10;67.40
19567;DHT22;9930;49.240;8.548;2023-04-03T03:00:49;7.10;67.50
19567;DHT22;9930;49.240;8.548;2023-04-03T03:03:15;7.10;67.50
19567;DHT22;9930;49.240;8.548;2023-04-03T03:05:43;7.10;67.50
19567;DHT22;9930;49.240;8.548;2023-04-03T03:08:11;7.10;67.60
19567;DHT22;9930;49.240;8.548;2023-04-03T03:10:39;7.10;67.60
19567;DHT22;9930;49.240;8.548;2023-04-03T03:13:09;7.10;67.60
19567;DHT22;9930;49.240;8.548;2023-04-03T03:15:37;7.10;67.60
19567;DHT22;9930;49.240;8.548;2023-04-03T03:18:07;7.10;67.60
19567;DHT22;9930;49.240;8.548;2023-04-03T03:20:37;7.10;67.60
19567;DHT22;9930;49.240;8.548;2023-04-03T03:23:07;7.10;67.70
19567;DHT22;9930;49.240;8.548;2023-04-03T03:25:40;7.10;67.70
19567;DHT22;9930;49.240;8.548;2023-04-03T03:28:08;7.10;67.70
19567;DHT22;9930;49.240;8.548;2023-04-03T03:30:34;7.10;67.80
19567;DHT22;9930;49.240;8.548;2023-04-03T03:33:00;7.10;67.60
19567;DHT22;9930;49.240;8.548;2023-04-03T03:35:29;7.10;67.70
19567;DHT22;9930;49.240;8.548;2023-04-03T03:37:57;7.20;67.70
19567;DHT22;9930;49.240;8.548;2023-04-03T03:40:25;7.10;67.70
19567;DHT22;9930;49.240;8.548;2023-04-03T03:42:51;7.10;67.70
19567;DHT22;9930;49.240;8.548;2023-04-03T03:45:17;7.10;67.80
19567;DHT22;9930;49.240;8.548;2023-04-03T03:47:42;7.10;67.80
19567;DHT22;9930;49.240;8.548;2023-04-03T03:50:08;7.10;67.60
19567;DHT22;9930;49.240;8.548;2023-04-03T03:52:35;7.10;67.50
19567;DHT22;9930;49.240;8.548;2023-04-03T03:55:04;7.20;67.50
19567;DHT22;9930;49.240;8.548;2023-04-03T03:57:36;7.10;67.40
19567;DHT22;9930;49.240;8.548;2023-04-03T04:00:07;7.20;67.40
19567;DHT22;9930;49.240;8.548;2023-04-03T04:02:36;7.10;67.20
19567;DHT22;9930;49.240;8.548;2023-04-03T04:05:02;7.10;67.20
19567;DHT22;9930;49.240;8.548;2023-04-03T04:07:32;7.10;67.10
19567;DHT22;9930;49.240;8.548;2023-04-03T04:10:00;7.10;67.10
19567;DHT22;9930;49.240;8.548;2023-04-03T04:12:28;7.00;67.00
19567;DHT22;9930;49.240;8.548;2023-04-03T04:14:54;7.00;67.00
19567;DHT22;9930;49.240;8.548;2023-04-03T04:17:20;6.90;67.00
19567;DHT22;9930;49.240;8.548;2023-04-03T04:19:47;6.90;67.00
19567;DHT22;9930;49.240;8.548;2023-04-03T04:22:12;6.90;67.70
19567;DHT22;9930;49.240;8.548;2023-04-03T04:24:41;6.90;67.00
19567;DHT22;9930;49.240;8.548;2023-04-03T04:27:06;6.80;67.00
19567;DHT22;9930;49.240;8.548;2023-04-03T04:29:34;6.80;67.10
19567;DHT22;9930;49.240;8.548;2023-04-03T04:32:04;6.70;67.00
19567;DHT22;9930;49.240;8.548;2023-04-03T04:34:30;6.70;67.00
19567;DHT22;9930;49.240;8.548;2023-04-03T04:36:56;6.80;67.10
19567;DHT22;9930;49.240;8.548;2023-04-03T04:39:24;6.70;67.00
19567;DHT22;9930;49.240;8.548;2023-04-03T04:41:50;6.60;67.10
19567;DHT22;9930;49.240;8.548;2023-04-03T04:44:20;6.50;67.00
19567;DHT22;9930;49.240;8.548;2023-04-03T04:46:49;6.50;67.10
19567;DHT22;9930;49.240;8.548;2023-04-03T04:49:15;6.50;67.10
19567;DHT22;9930;49.240;8.548;2023-04-03T04:51:40;6.40;67.10
19567;DHT22;9930;49.240;8.548;2023-04-03T04:54:06;6.40;67.10
19567;DHT22;9930;49.240;8.548;2023-04-03T04:56:34;6.30;67.10
19567;DHT22;9930;49.240;8.548;2023-04-03T04:59:02;6.30;67.10
19567;DHT22;9930;49.240;8.548;2023-04-03T05:01:32;6.30;67.20
19567;DHT22;9930;49.240;8.548;2023-04-03T05:04:01;6.30;67.20
19567;DHT22;9930;49.240;8.548;2023-04-03T05:06:27;6.20;67.30
19567;DHT22;9930;49.240;8.548;2023-04-03T05:08:52;6.20;67.30
19567;DHT22;9930;49.240;8.548;2023-04-03T05:11:18;6.20;67.40
19567;DHT22;9930;49.240;8.548;2023-04-03T05:13:44;6.10;67.40
19567;DHT22;9930;49.240;8.548;2023-04-03T05:16:12;6.10;67.50
19567;DHT22;9930;49.240;8.548;2023-04-03T05:18:40;6.00;67.50
19567;DHT22;9930;49.240;8.548;2023-04-03T05:21:05;6.00;67.60
19567;DHT22;9930;49.240;8.548;2023-04-03T05:23:34;6.00;67.80
19567;DHT22;9930;49.240;8.548;2023-04-03T05:25:59;6.00;67.90
19567;DHT22;9930;49.240;8.548;2023-04-03T05:28:29;6.00;67.90
19567;DHT22;9930;49.240;8.548;2023-04-03T05:30:58;6.00;67.90
19567;DHT22;9930;49.240;8.548;2023-04-03T05:33:24;6.00;68.00
19567;DHT22;9930;49.240;8.548;2023-04-03T05:35:54;6.00;68.10
19567;DHT22;9930;49.240;8.548;2023-04-03T05:38:19;6.00;68.10
19567;DHT22;9930;49.240;8.548;2023-04-03T05:40:48;6.00;68.10
19567;DHT22;9930;49.240;8.548;2023-04-03T05:43:13;6.00;68.10
19567;DHT22;9930;49.240;8.548;2023-04-03T05:45:42;5.90;68.10
19567;DHT22;9930;49.240;8.548;2023-04-03T05:48:12;6.00;68.10
19567;DHT22;9930;49.240;8.548;2023-04-03T05:50:38;5.90;68.10
19567;DHT22;9930;49.240;8.548;2023-04-03T05:53:15;6.00;68.30
19567;DHT22;9930;49.240;8.548;2023-04-03T05:55:46;6.00;68.30
19567;DHT22;9930;49.240;8.548;2023-04-03T05:58:14;6.00;68.40
19567;DHT22;9930;49.240;8.548;2023-04-03T06:00:40;6.00;68.50
19567;DHT22;9930;49.240;8.548;2023-04-03T06:03:08;6.00;68.60
19567;DHT22;9930;49.240;8.548;2023-04-03T06:05:37;6.00;68.70
19567;DHT22;9930;49.240;8.548;2023-04-03T06:08:05;6.00;68.70
19567;DHT22;9930;49.240;8.548;2023-04-03T06:10:31;6.10;68.70
19567;DHT22;9930;49.240;8.548;2023-04-03T06:12:57;6.10;68.80
19567;DHT22;9930;49.240;8.548;2023-04-03T06:15:28;6.20;68.80
19567;DHT22;9930;49.240;8.548;2023-04-03T06:17:54;6.20;68.80
19567;DHT22;9930;49.240;8.548;2023-04-03T06:20:20;6.30;68.90
19567;DHT22;9930;49.240;8.548;2023-04-03T06:22:49;6.30;68.90
19567;DHT22;9930;49.240;8.548;2023-04-03T06:25:15;6.40;68.80
19567;DHT22;9930;49.240;8.548;2023-04-03T06:27:44;6.40;68.80
19567;DHT22;9930;49.240;8.548;2023-04-03T06:30:11;6.50;68.80
19567;DHT22;9930;49.240;8.548;2023-04-03T06:32:41;6.50;68.80
19567;DHT22;9930;49.240;8.548;2023-04-03T06:35:08;6.50;68.80
19567;DHT22;9930;49.240;8.548;2023-04-03T06:37:35;6.60;68.80
19567;DHT22;9930;49.240;8.548;2023-04-03T06:40:07;6.70;69.20
19567;DHT22;9930;49.240;8.548;2023-04-03T06:42:35;6.70;69.60
19567;DHT22;9930;49.240;8.548;2023-04-03T06:45:03;6.90;70.30
19567;DHT22;9930;49.240;8.548;2023-04-03T06:47:30;7.10;70.70
19567;DHT22;9930;49.240;8.548;2023-04-03T06:49:58;7.30;70.80
19567;DHT22;9930;49.240;8.548;2023-04-03T06:52:23;7.50;70.90
19567;DHT22;9930;49.240;8.548;2023-04-03T06:54:51;7.70;70.70
19567;DHT22;9930;49.240;8.548;2023-04-03T06:57:22;7.90;70.40
19567;DHT22;9930;49.240;8.548;2023-04-03T06:59:48;8.10;70.40
19567;DHT22;9930;49.240;8.548;2023-04-03T07:02:15;8.30;70.10
19567;DHT22;9930;49.240;8.548;2023-04-03T07:04:44;8.40;69.90
19567;DHT22;9930;49.240;8.548;2023-04-03T07:07:12;8.60;69.60
19567;DHT22;9930;49.240;8.548;2023-04-03T07:09:37;8.80;69.40
19567;DHT22;9930;49.240;8.548;2023-04-03T07:12:03;8.90;69.10
19567;DHT22;9930;49.240;8.548;2023-04-03T07:14:29;9.00;68.70
19567;DHT22;9930;49.240;8.548;2023-04-03T07:16:57;9.00;68.50
19567;DHT22;9930;49.240;8.548;2023-04-03T07:19:22;9.10;68.10
19567;DHT22;9930;49.240;8.548;2023-04-03T07:21:53;9.20;68.20
19567;DHT22;9930;49.240;8.548;2023-04-03T07:24:19;9.20;68.10
19567;DHT22;9930;49.240;8.548;2023-04-03T07:26:49;9.20;68.00
19567;DHT22;9930;49.240;8.548;2023-04-03T07:29:16;9.30;67.20
19567;DHT22;9930;49.240;8.548;2023-04-03T07:31:44;9.30;67.50
19567;DHT22;9930;49.240;8.548;2023-04-03T07:34:10;9.40;67.30
19567;DHT22;9930;49.240;8.548;2023-04-03T07:36:36;9.40;66.90
19567;DHT22;9930;49.240;8.548;2023-04-03T07:39:04;9.40;66.80
19567;DHT22;9930;49.240;8.548;2023-04-03T07:41:32;9.40;66.70
19567;DHT22;9930;49.240;8.548;2023-04-03T07:43:58;9.40;66.90
19567;DHT22;9930;49.240;8.548;2023-04-03T07:46:26;9.40;66.90
19567;DHT22;9930;49.240;8.548;2023-04-03T07:48:52;9.40;66.90
19567;DHT22;9930;49.240;8.548;2023-04-03T07:51:17;9.40;66.70
19567;DHT22;9930;49.240;8.548;2023-04-03T07:53:44;9.40;66.00
19567;DHT22;9930;49.240;8.548;2023-04-03T07:56:11;9.40;65.80
19567;DHT22;9930;49.240;8.548;2023-04-03T07:58:37;9.40;65.90
19567;DHT22;9930;49.240;8.548;2023-04-03T08:01:03;9.50;66.20
19567;DHT22;9930;49.240;8.548;2023-04-03T08:03:34;9.50;65.70
19567;DHT22;9930;49.240;8.548;2023-04-03T08:06:07;9.50;65.40
19567;DHT22;9930;49.240;8.548;2023-04-03T08:08:40;9.60;65.60
19567;DHT22;9930;49.240;8.548;2023-04-03T08:11:10;9.60;64.90
19567;DHT22;9930;49.240;8.548;2023-04-03T08:13:37;9.70;65.30
19567;DHT22;9930;49.240;8.548;2023-04-03T08:16:16;9.70;65.40
19567;DHT22;9930;49.240;8.548;2023-04-03T08:18:48;9.70;65.00
19567;DHT22;9930;49.240;8.548;2023-04-03T08:21:14;9.80;65.30
19567;DHT22;9930;49.240;8.548;2023-04-03T08:23:40;9.80;65.30
19567;DHT22;9930;49.240;8.548;2023-04-03T08:26:10;9.90;65.20
19567;DHT22;9930;49.240;8.548;2023-04-03T08:28:38;10.00;65.20
19567;DHT22;9930;49.240;8.548;2023-04-03T08:31:12;10.10;64.90
19567;DHT22;9930;49.240;8.548;2023-04-03T08:33:42;10.10;64.90
19567;DHT22;9930;49.240;8.548;2023-04-03T08:36:19;10.20;64.40
19567;DHT22;9930;49.240;8.548;2023-04-03T08:38:47;10.30;63.90
19567;DHT22;9930;49.240;8.548;2023-04-03T08:41:50;10.30;64.40
19567;DHT22;9930;49.240;8.548;2023-04-03T08:49:57;10.20;62.70
19567;DHT22;9930;49.240;8.548;2023-04-03T08:52:39;10.20;62.20
19567;DHT22;9930;49.240;8.548;2023-04-03T08:55:26;10.10;62.40
19567;DHT22;9930;49.240;8.548;2023-04-03T08:58:21;10.10;62.00
19567;DHT22;9930;49.240;8.548;2023-04-03T09:01:10;10.10;62.40
19567;DHT22;9930;49.240;8.548;2023-04-03T09:03:44;10.10;62.60
19567;DHT22;9930;49.240;8.548;2023-04-03T09:06:20;10.10;62.80
19567;DHT22;9930;49.240;8.548;2023-04-03T09:15:02;10.30;62.10
19567;DHT22;9930;49.240;8.548;2023-04-03T09:17:57;10.50;62.30
19567;DHT22;9930;49.240;8.548;2023-04-03T09:20:39;10.70;62.50
19567;DHT22;9930;49.240;8.548;2023-04-03T09:25:54;10.80;61.70
19567;DHT22;9930;49.240;8.548;2023-04-03T09:28:25;11.00;63.30
19567;DHT22;9930;49.240;8.548;2023-04-03T09:30:52;11.10;62.40
19567;DHT22;9930;49.240;8.548;2023-04-03T09:33:18;11.30;62.80
19567;DHT22;9930;49.240;8.548;2023-04-03T09:35:47;11.40;62.40
19567;DHT22;9930;49.240;8.548;2023-04-03T09:38:19;11.60;60.90
19567;DHT22;9930;49.240;8.548;2023-04-03T09:41:03;11.70;61.20
19567;DHT22;9930;49.240;8.548;2023-04-03T09:43:53;11.80;60.90
19567;DHT22;9930;49.240;8.548;2023-04-03T09:46:25;11.90;60.80
19567;DHT22;9930;49.240;8.548;2023-04-03T09:48:59;12.00;61.10
19567;DHT22;9930;49.240;8.548;2023-04-03T09:51:27;12.10;61.10
19567;DHT22;9930;49.240;8.548;2023-04-03T09:53:57;12.20;60.30
19567;DHT22;9930;49.240;8.548;2023-04-03T09:56:26;12.30;59.50
19567;DHT22;9930;49.240;8.548;2023-04-03T10:01:31;12.40;59.30
19567;DHT22;9930;49.240;8.548;2023-04-03T10:06:53;12.30;58.20
19567;DHT22;9930;49.240;8.548;2023-04-03T10:12:02;12.20;58.40
19567;DHT22;9930;49.240;8.548;2023-04-03T10:14:40;12.30;58.10
19567;DHT22;9930;49.240;8.548;2023-04-03T10:23:26;12.10;57.80
19567;DHT22;9930;49.240;8.548;2023-04-03T10:31:44;12.10;56.90
19567;DHT22;9930;49.240;8.548;2023-04-03T10:34:28;12.10;56.90
19567;DHT22;9930;49.240;8.548;2023-04-03T10:39:59;12.00;57.50
19567;DHT22;9930;49.240;8.548;2023-04-03T10:50:58;12.20;57.00
19567;DHT22;9930;49.240;8.548;2023-04-03T10:56:42;12.10;54.80
19567;DHT22;9930;49.240;8.548;2023-04-03T10:59:23;12.20;55.80
19567;DHT22;9930;49.240;8.548;2023-04-03T11:01:59;12.10;56.20
19567;DHT22;9930;49.240;8.548;2023-04-03T11:04:33;12.10;55.70
19567;DHT22;9930;49.240;8.548;2023-04-03T11:07:02;12.10;55.20
19567;DHT22;9930;49.240;8.548;2023-04-03T11:09:41;12.20;55.90
19567;DHT22;9930;49.240;8.548;2023-04-03T11:13:16;12.20;55.90
19567;DHT22;9930;49.240;8.548;2023-04-03T11:15:29;12.10;55.30
19567;DHT22;9930;49.240;8.548;2023-04-03T11:18:13;12.20;56.60
19567;DHT22;9930;49.240;8.548;2023-04-03T11:20:56;12.20;55.40
19567;DHT22;9930;49.240;8.548;2023-04-03T11:23:40;12.20;54.70
19567;DHT22;9930;49.240;8.548;2023-04-03T11:26:17;12.10;54.80
19567;DHT22;9930;49.240;8.548;2023-04-03T11:28:52;12.10;54.70
19567;DHT22;9930;49.240;8.548;2023-04-03T11:34:42;12.00;55.00
19567;DHT22;9930;49.240;8.548;2023-04-03T11:37:38;11.90;54.70
19567;DHT22;9930;49.240;8.548;2023-04-03T11:42:42;11.90;54.80
19567;DHT22;9930;49.240;8.548;2023-04-03T11:48:02;11.90;54.30
19567;DHT22;9930;49.240;8.548;2023-04-03T11:58:21;11.90;54.60
19567;DHT22;9930;49.240;8.548;2023-04-03T12:00:57;11.90;54.00
19567;DHT22;9930;49.240;8.548;2023-04-03T12:16:27;12.00;52.80
19567;DHT22;9930;49.240;8.548;2023-04-03T12:30:12;11.90;54.30
19567;DHT22;9930;49.240;8.548;2023-04-03T12:38:40;12.00;54.30
19567;DHT22;9930;49.240;8.548;2023-04-03T12:44:31;12.00;53.50
19567;DHT22;9930;49.240;8.548;2023-04-03T12:47:28;12.10;53.80
19567;DHT22;9930;49.240;8.548;2023-04-03T12:49:59;12.00;53.10
19567;DHT22;9930;49.240;8.548;2023-04-03T12:55:19;12.00;53.80
19567;DHT22;9930;49.240;8.548;2023-04-03T12:57:46;12.10;53.50
19567;DHT22;9930;49.240;8.548;2023-04-03T13:03:06;12.20;52.50
19567;DHT22;9930;49.240;8.548;2023-04-03T13:05:45;12.20;53.60
19567;DHT22;9930;49.240;8.548;2023-04-03T13:08:12;12.30;53.80
19567;DHT22;9930;49.240;8.548;2023-04-03T13:11:09;12.30;53.90
19567;DHT22;9930;49.240;8.548;2023-04-03T13:13:37;12.30;53.40
19567;DHT22;9930;49.240;8.548;2023-04-03T13:16:09;12.40;53.80
19567;DHT22;9930;49.240;8.548;2023-04-03T13:18:37;12.40;53.40
19567;DHT22;9930;49.240;8.548;2023-04-03T13:21:27;12.40;52.70
19567;DHT22;9930;49.240;8.548;2023-04-03T13:23:58;12.40;52.80
19567;DHT22;9930;49.240;8.548;2023-04-03T13:26:31;12.30;52.10
19567;DHT22;9930;49.240;8.548;2023-04-03T13:29:04;12.30;52.50
19567;DHT22;9930;49.240;8.548;2023-04-03T13:31:36;12.30;52.30
19567;DHT22;9930;49.240;8.548;2023-04-03T13:34:09;12.30;52.80
19567;DHT22;9930;49.240;8.548;2023-04-03T13:36:40;12.30;52.90
19567;DHT22;9930;49.240;8.548;2023-04-03T13:41:43;12.30;52.60
19567;DHT22;9930;49.240;8.548;2023-04-03T13:46:48;12.40;52.50
19567;DHT22;9930;49.240;8.548;2023-04-03T13:52:29;12.40;52.90
19567;DHT22;9930;49.240;8.548;2023-04-03T13:54:58;12.50;51.70
19567;DHT22;9930;49.240;8.548;2023-04-03T13:57:31;12.50;52.70
19567;DHT22;9930;49.240;8.548;2023-04-03T13:59:59;12.50;53.00
19567;DHT22;9930;49.240;8.548;2023-04-03T14:02:33;12.60;53.30
19567;DHT22;9930;49.240;8.548;2023-04-03T14:05:04;12.60;51.90
19567;DHT22;9930;49.240;8.548;2023-04-03T14:07:35;12.60;52.20
19567;DHT22;9930;49.240;8.548;2023-04-03T14:10:03;12.50;51.60
19567;DHT22;9930;49.240;8.548;2023-04-03T14:12:37;12.50;51.30
19567;DHT22;9930;49.240;8.548;2023-04-03T14:15:19;12.30;51.30
19567;DHT22;9930;49.240;8.548;2023-04-03T14:17:50;12.20;51.00
19567;DHT22;9930;49.240;8.548;2023-04-03T14:20:19;12.10;51.40
19567;DHT22;9930;49.240;8.548;2023-04-03T14:22:50;12.10;51.70
19567;DHT22;9930;49.240;8.548;2023-04-03T14:25:21;12.10;51.70
19567;DHT22;9930;49.240;8.548;2023-04-03T14:27:52;12.10;52.20
19567;DHT22;9930;49.240;8.548;2023-04-03T14:30:27;12.10;51.70
19567;DHT22;9930;49.240;8.548;2023-04-03T14:32:57;12.20;52.20
19567;DHT22;9930;49.240;8.548;2023-04-03T14:35:28;12.30;52.50
19567;DHT22;9930;49.240;8.548;2023-04-03T14:37:56;12.40;52.50
19567;DHT22;9930;49.240;8.548;2023-04-03T14:40:25;12.50;52.40
19567;DHT22;9930;49.240;8.548;2023-04-03T14:42:52;12.60;52.40
19567;DHT22;9930;49.240;8.548;2023-04-03T14:45:21;12.70;52.10
19567;DHT22;9930;49.240;8.548;2023-04-03T14:47:53;12.70;51.70
19567;DHT22;9930;49.240;8.548;2023-04-03T14:50:23;12.80;50.70
19567;DHT22;9930;49.240;8.548;2023-04-03T14:52:53;12.70;50.40
19567;DHT22;9930;49.240;8.548;2023-04-03T14:55:24;12.70;50.50
19567;DHT22;9930;49.240;8.548;2023-04-03T14:57:53;12.70;49.90
19567;DHT22;9930;49.240;8.548;2023-04-03T15:00:23;12.60;50.40
19567;DHT22;9930;49.240;8.548;2023-04-03T15:02:49;12.50;50.50
19567;DHT22;9930;49.240;8.548;2023-04-03T15:05:15;12.50;50.70
19567;DHT22;9930;49.240;8.548;2023-04-03T15:07:53;12.50;50.50
19567;DHT22;9930;49.240;8.548;2023-04-03T15:10:22;12.50;50.30
19567;DHT22;9930;49.240;8.548;2023-04-03T15:12:51;12.50;50.20
19567;DHT22;9930;49.240;8.548;2023-04-03T15:15:21;12.50;50.80
19567;DHT22;9930;49.240;8.548;2023-04-03T15:17:52;12.50;50.00
19567;DHT22;9930;49.240;8.548;2023-04-03T15:20:24;12.50;50.40
19567;DHT22;9930;49.240;8.548;2023-04-03T15:22:52;12.40;50.20
19567;DHT22;9930;49.240;8.548;2023-04-03T15:25:18;12.50;50.40
19567;DHT22;9930;49.240;8.548;2023-04-03T15:27:44;12.40;50.10
19567;DHT22;9930;49.240;8.548;2023-04-03T15:30:18;12.40;50.00
19567;DHT22;9930;49.240;8.548;2023-04-03T15:32:47;12.30;49.90
19567;DHT22;9930;49.240;8.548;2023-04-03T15:35:15;12.30;50.30
19567;DHT22;9930;49.240;8.548;2023-04-03T15:37:41;12.30;50.40
19567;DHT22;9930;49.240;8.548;2023-04-03T15:40:07;12.30;50.10
19567;DHT22;9930;49.240;8.548;2023-04-03T15:42:37;12.20;50.20
19567;DHT22;9930;49.240;8.548;2023-04-03T15:45:06;12.20;50.00
19567;DHT22;9930;49.240;8.548;2023-04-03T15:47:33;12.10;49.60
19567;DHT22;9930;49.240;8.548;2023-04-03T15:49:59;12.10;49.30
19567;DHT22;9930;49.240;8.548;2023-04-03T15:52:25;12.20;49.80
19567;DHT22;9930;49.240;8.548;2023-04-03T15:54:53;12.10;49.70
19567;DHT22;9930;49.240;8.548;2023-04-03T15:57:19;12.10;49.60
19567;DHT22;9930;49.240;8.548;2023-04-03T15:59:45;12.10;49.70
19567;DHT22;9930;49.240;8.548;2023-04-03T16:02:11;12.00;49.20
19567;DHT22;9930;49.240;8.548;2023-04-03T16:04:40;12.00;49.40
19567;DHT22;9930;49.240;8.548;2023-04-03T16:07:06;12.00;49.40
19567;DHT22;9930;49.240;8.548;2023-04-03T16:09:35;12.00;49.50
19567;DHT22;9930;49.240;8.548;2023-04-03T16:12:04;11.90;50.00
19567;DHT22;9930;49.240;8.548;2023-04-03T16:14:33;11.90;49.40
19567;DHT22;9930;49.240;8.548;2023-04-03T16:16:59;11.90;49.60
19567;DHT22;9930;49.240;8.548;2023-04-03T16:19:30;11.90;49.80
19567;DHT22;9930;49.240;8.548;2023-04-03T16:21:55;11.90;49.80
19567;DHT22;9930;49.240;8.548;2023-04-03T16:24:24;11.80;49.70
19567;DHT22;9930;49.240;8.548;2023-04-03T16:26:49;11.80;49.20
19567;DHT22;9930;49.240;8.548;2023-04-03T16:29:15;11.80;49.70
19567;DHT22;9930;49.240;8.548;2023-04-03T16:31:41;11.80;49.70
19567;DHT22;9930;49.240;8.548;2023-04-03T16:34:07;11.70;49.60
19567;DHT22;9930;49.240;8.548;2023-04-03T16:36:33;11.70;49.50
19567;DHT22;9930;49.240;8.548;2023-04-03T16:39:01;11.70;49.50
19567;DHT22;9930;49.240;8.548;2023-04-03T16:41:27;11.60;48.80
19567;DHT22;9930;49.240;8.548;2023-04-03T16:43:57;11.60;48.90
19567;DHT22;9930;49.240;8.548;2023-04-03T16:46:25;11.60;49.10
19567;DHT22;9930;49.240;8.548;2023-04-03T16:48:51;11.60;49.10
19567;DHT22;9930;49.240;8.548;2023-04-03T16:51:16;11.50;48.90
19567;DHT22;9930;49.240;8.548;2023-04-03T16:53:42;11.50;49.10
19567;DHT22;9930;49.240;8.548;2023-04-03T16:56:08;11.40;48.90
19567;DHT22;9930;49.240;8.548;2023-04-03T16:58:36;11.40;49.10
19567;DHT22;9930;49.240;8.548;2023-04-03T17:01:10;11.40;49.10
19567;DHT22;9930;49.240;8.548;2023-04-03T17:03:41;11.30;49.00
19567;DHT22;9930;49.240;8.548;2023-04-03T17:06:07;11.30;48.60
19567;DHT22;9930;49.240;8.548;2023-04-03T17:08:45;11.30;49.00
19567;DHT22;9930;49.240;8.548;2023-04-03T17:11:12;11.20;48.30
19567;DHT22;9930;49.240;8.548;2023-04-03T17:13:43;11.20;48.90
19567;DHT22;9930;49.240;8.548;2023-04-03T17:16:14;11.10;48.40
19567;DHT22;9930;49.240;8.548;2023-04-03T17:18:41;11.10;48.70
19567;DHT22;9930;49.240;8.548;2023-04-03T17:21:10;11.10;48.10
19567;DHT22;9930;49.240;8.548;2023-04-03T17:23:44;11.00;48.40
19567;DHT22;9930;49.240;8.548;2023-04-03T17:26:16;11.00;48.60
19567;DHT22;9930;49.240;8.548;2023-04-03T17:28:46;10.90;48.30
19567;DHT22;9930;49.240;8.548;2023-04-03T17:31:12;10.90;48.40
19567;DHT22;9930;49.240;8.548;2023-04-03T17:33:37;10.80;48.70
19567;DHT22;9930;49.240;8.548;2023-04-03T17:36:06;10.80;48.90
19567;DHT22;9930;49.240;8.548;2023-04-03T17:38:36;10.70;48.90
19567;DHT22;9930;49.240;8.548;2023-04-03T17:41:06;10.70;48.70
19567;DHT22;9930;49.240;8.548;2023-04-03T17:43:34;10.70;48.80
19567;DHT22;9930;49.240;8.548;2023-04-03T17:46:06;10.60;48.60
19567;DHT22;9930;49.240;8.548;2023-04-03T17:48:35;10.60;48.80
19567;DHT22;9930;49.240;8.548;2023-04-03T17:51:08;10.50;48.90
19567;DHT22;9930;49.240;8.548;2023-04-03T17:53:40;10.50;48.50
19567;DHT22;9930;49.240;8.548;2023-04-03T17:56:10;10.40;48.70
19567;DHT22;9930;49.240;8.548;2023-04-03T17:58:38;10.40;48.50
19567;DHT22;9930;49.240;8.548;2023-04-03T18:01:13;10.30;48.70
19567;DHT22;9930;49.240;8.548;2023-04-03T18:03:42;10.30;48.60
19567;DHT22;9930;49.240;8.548;2023-04-03T18:06:16;10.20;48.00
19567;DHT22;9930;49.240;8.548;2023-04-03T18:08:46;10.20;49.10
19567;DHT22;9930;49.240;8.548;2023-04-03T18:11:19;10.10;48.60